EZS949Y LFSB-LFBD
Flight info
| Callsign | EZS949Y |
|---|---|
| Flight time | 1h 8m |
| Altitude | 33000 |
| Route | MOROK T14 GILIR DCT TUROM DCT NINTU/N0440F370 DCT MEBAK/N0441F360 DCT TIS/N0442F370 DCT LMG |
| Aircraft | A320/M-SDE3FGHIRWY/LB1 |
Departure
| Time | 2026-04-27 01:27 |
|---|---|
| Airport | EuroAirport Basel–Mulhouse–Freiburg (LFSB) |
Arrival
| Time | 2026-04-27 02:35 |
|---|---|
| Airport | Bordeaux–Mérignac Airport (LFBD) |
| Time | Latitude | Longitude | Altitude | Speed | Heading |
|---|---|---|---|---|---|
| 2026-04-27 00:48 | 47.59868 | 7.52808 | 890 ft | 0 kts | 65° |
| 2026-04-27 01:14 | 47.59867 | 7.52806 | 890 ft | 2 kts | 65° |
| 2026-04-27 01:14 | 47.59857 | 7.52772 | 890 ft | 4 kts | 63° |
| 2026-04-27 01:15 | 47.59841 | 7.52741 | 890 ft | 4 kts | 27° |
| 2026-04-27 01:15 | 47.59819 | 7.52735 | 890 ft | 2 kts | 336° |
| 2026-04-27 01:15 | 47.59813 | 7.52739 | 890 ft | 0 kts | 335° |
| 2026-04-27 01:19 | 47.59818 | 7.52735 | 890 ft | 5 kts | 336° |
| 2026-04-27 01:19 | 47.59885 | 7.52690 | 890 ft | 15 kts | 336° |
| 2026-04-27 01:19 | 47.60004 | 7.52608 | 890 ft | 17 kts | 330° |
| 2026-04-27 01:20 | 47.60052 | 7.52483 | 890 ft | 17 kts | 319° |
| 2026-04-27 01:20 | 47.60180 | 7.52388 | 890 ft | 23 kts | 334° |
| 2026-04-27 01:20 | 47.60340 | 7.52279 | 885 ft | 28 kts | 335° |
| 2026-04-27 01:20 | 47.60529 | 7.52144 | 882 ft | 32 kts | 334° |
| 2026-04-27 01:21 | 47.60721 | 7.52014 | 881 ft | 28 kts | 335° |
| 2026-04-27 01:21 | 47.60898 | 7.51891 | 879 ft | 29 kts | 333° |
| 2026-04-27 01:21 | 47.61059 | 7.51778 | 875 ft | 26 kts | 334° |
| 2026-04-27 01:21 | 47.61231 | 7.51658 | 870 ft | 28 kts | 335° |
| 2026-04-27 01:22 | 47.61414 | 7.51531 | 854 ft | 30 kts | 335° |
| 2026-04-27 01:22 | 47.61594 | 7.51406 | 867 ft | 24 kts | 335° |
| 2026-04-27 01:22 | 47.61730 | 7.51310 | 873 ft | 12 kts | 335° |
| 2026-04-27 01:22 | 47.61791 | 7.51246 | 873 ft | 10 kts | 309° |
| 2026-04-27 01:23 | 47.61805 | 7.51174 | 873 ft | 2 kts | 273° |
| 2026-04-27 01:23 | 47.61805 | 7.51157 | 874 ft | 1 kts | 268° |
| 2026-04-27 01:23 | 47.61804 | 7.51154 | 874 ft | 0 kts | 266° |
| 2026-04-27 01:25 | 47.61803 | 7.51137 | 875 ft | 5 kts | 260° |
| 2026-04-27 01:25 | 47.61771 | 7.51039 | 876 ft | 13 kts | 236° |
| 2026-04-27 01:25 | 47.61699 | 7.51036 | 876 ft | 2 kts | 156° |
| 2026-04-27 01:26 | 47.61698 | 7.51037 | 876 ft | 0 kts | 156° |
| 2026-04-27 01:26 | 47.61693 | 7.51040 | 876 ft | 6 kts | 156° |
| 2026-04-27 01:26 | 47.61412 | 7.51236 | 871 ft | 85 kts | 154° |
| 2026-04-27 01:26 | 47.60672 | 7.51754 | 882 ft | 147 kts | 154° |
| 2026-04-27 01:27 | 47.59623 | 7.52511 | 1094 ft | 180 kts | 153° |
| 2026-04-27 01:27 | 47.58452 | 7.53397 | 1625 ft | 196 kts | 152° |
| 2026-04-27 01:27 | 47.57198 | 7.54229 | 2356 ft | 203 kts | 166° |
| 2026-04-27 01:27 | 47.55739 | 7.53940 | 2788 ft | 228 kts | 210° |
| 2026-04-27 01:28 | 47.54694 | 7.52150 | 3557 ft | 238 kts | 245° |
| 2026-04-27 01:28 | 47.54177 | 7.49803 | 4454 ft | 242 kts | 256° |
| 2026-04-27 01:28 | 47.53810 | 7.47359 | 5397 ft | 244 kts | 258° |
| 2026-04-27 01:28 | 47.53440 | 7.44890 | 6306 ft | 248 kts | 260° |
| 2026-04-27 01:29 | 47.53140 | 7.42293 | 6872 ft | 268 kts | 261° |
| 2026-04-27 01:29 | 47.52806 | 7.39485 | 7504 ft | 282 kts | 260° |
| 2026-04-27 01:29 | 47.52428 | 7.36616 | 8410 ft | 286 kts | 259° |
| 2026-04-27 01:29 | 47.52015 | 7.33727 | 9367 ft | 288 kts | 258° |
| 2026-04-27 01:30 | 47.51576 | 7.30832 | 10310 ft | 291 kts | 257° |
| 2026-04-27 01:30 | 47.51104 | 7.27811 | 10758 ft | 312 kts | 257° |
| 2026-04-27 01:30 | 47.50590 | 7.24575 | 11126 ft | 332 kts | 257° |
| 2026-04-27 01:30 | 47.50051 | 7.21216 | 11842 ft | 339 kts | 257° |
| 2026-04-27 01:31 | 47.49499 | 7.17808 | 12659 ft | 343 kts | 257° |
| 2026-04-27 01:31 | 47.48940 | 7.14362 | 13486 ft | 346 kts | 258° |
| 2026-04-27 01:31 | 47.48375 | 7.10888 | 14268 ft | 349 kts | 258° |
| 2026-04-27 01:31 | 47.47801 | 7.07376 | 14978 ft | 353 kts | 258° |
| 2026-04-27 01:32 | 47.47221 | 7.03834 | 15677 ft | 357 kts | 258° |
| 2026-04-27 01:32 | 47.46635 | 7.00257 | 16373 ft | 360 kts | 258° |
| 2026-04-27 01:32 | 47.46008 | 6.96650 | 17070 ft | 364 kts | 256° |
| 2026-04-27 01:32 | 47.45309 | 6.93045 | 17753 ft | 368 kts | 255° |
| 2026-04-27 01:33 | 47.44561 | 6.89404 | 18434 ft | 372 kts | 254° |
| 2026-04-27 01:33 | 47.43791 | 6.85733 | 19032 ft | 375 kts | 254° |
| 2026-04-27 01:33 | 47.43018 | 6.82045 | 19638 ft | 378 kts | 255° |
| 2026-04-27 01:33 | 47.42244 | 6.78308 | 20254 ft | 381 kts | 255° |
| 2026-04-27 01:34 | 47.41474 | 6.74543 | 20870 ft | 384 kts | 255° |
| 2026-04-27 01:34 | 47.40698 | 6.70776 | 21477 ft | 387 kts | 253° |
| 2026-04-27 01:34 | 47.39589 | 6.67108 | 22076 ft | 393 kts | 242° |
| 2026-04-27 01:34 | 47.38011 | 6.63785 | 22670 ft | 399 kts | 231° |
| 2026-04-27 01:35 | 47.35996 | 6.60921 | 23246 ft | 405 kts | 222° |
| 2026-04-27 01:35 | 47.33833 | 6.58234 | 23805 ft | 408 kts | 222° |
| 2026-04-27 01:35 | 47.31657 | 6.55524 | 24266 ft | 411 kts | 223° |
| 2026-04-27 01:35 | 47.29481 | 6.52800 | 24716 ft | 413 kts | 223° |
| 2026-04-27 01:36 | 47.27285 | 6.50038 | 25164 ft | 416 kts | 223° |
| 2026-04-27 01:36 | 47.25073 | 6.47258 | 25596 ft | 419 kts | 223° |
| 2026-04-27 01:36 | 47.22855 | 6.44475 | 26019 ft | 421 kts | 223° |
| 2026-04-27 01:36 | 47.20614 | 6.41671 | 26423 ft | 424 kts | 223° |
| 2026-04-27 01:37 | 47.18355 | 6.38853 | 26835 ft | 427 kts | 223° |
| 2026-04-27 01:37 | 47.16085 | 6.36020 | 27237 ft | 429 kts | 223° |
| 2026-04-27 01:37 | 47.13800 | 6.33178 | 27631 ft | 432 kts | 223° |
| 2026-04-27 01:37 | 47.11497 | 6.30318 | 28020 ft | 435 kts | 223° |
| 2026-04-27 01:38 | 47.09175 | 6.27443 | 28395 ft | 438 kts | 223° |
| 2026-04-27 01:38 | 47.06847 | 6.24557 | 28769 ft | 440 kts | 223° |
| 2026-04-27 01:38 | 47.04500 | 6.21647 | 29133 ft | 443 kts | 223° |
| 2026-04-27 01:38 | 47.02135 | 6.18720 | 29465 ft | 446 kts | 223° |
| 2026-04-27 01:39 | 46.99756 | 6.15779 | 29806 ft | 448 kts | 223° |
| 2026-04-27 01:39 | 46.97373 | 6.12838 | 30127 ft | 451 kts | 223° |
| 2026-04-27 01:39 | 46.94961 | 6.09866 | 30426 ft | 453 kts | 223° |
| 2026-04-27 01:39 | 46.92549 | 6.06897 | 30705 ft | 455 kts | 223° |
| 2026-04-27 01:40 | 46.90120 | 6.03911 | 30988 ft | 456 kts | 223° |
| 2026-04-27 01:40 | 46.87685 | 6.00921 | 31245 ft | 458 kts | 223° |
| 2026-04-27 01:40 | 46.85183 | 5.98012 | 31491 ft | 462 kts | 217° |
| 2026-04-27 01:40 | 46.82408 | 5.95625 | 31766 ft | 465 kts | 208° |
| 2026-04-27 01:41 | 46.79429 | 5.93772 | 32121 ft | 465 kts | 204° |
| 2026-04-27 01:41 | 46.76444 | 5.91990 | 32477 ft | 464 kts | 204° |
| 2026-04-27 01:41 | 46.73461 | 5.90201 | 32824 ft | 463 kts | 204° |
| 2026-04-27 01:41 | 46.70482 | 5.88408 | 33137 ft | 463 kts | 205° |
| 2026-04-27 01:42 | 46.67522 | 5.86625 | 33199 ft | 455 kts | 205° |
| 2026-04-27 01:42 | 46.61736 | 5.83146 | 33193 ft | 448 kts | 205° |
| 2026-04-27 01:43 | 46.55979 | 5.79711 | 33197 ft | 447 kts | 204° |
| 2026-04-27 01:43 | 46.50230 | 5.76293 | 33194 ft | 447 kts | 204° |
| 2026-04-27 01:44 | 46.44488 | 5.72876 | 33193 ft | 447 kts | 204° |
| 2026-04-27 01:44 | 46.38734 | 5.69464 | 33186 ft | 446 kts | 204° |
| 2026-04-27 01:45 | 46.33000 | 5.66078 | 33180 ft | 446 kts | 204° |
| 2026-04-27 01:45 | 46.27204 | 5.62652 | 33175 ft | 446 kts | 204° |
| 2026-04-27 01:46 | 46.21468 | 5.59264 | 33176 ft | 446 kts | 204° |
| 2026-04-27 01:46 | 46.15999 | 5.55184 | 33166 ft | 441 kts | 219° |
| 2026-04-27 01:47 | 46.11699 | 5.48996 | 33167 ft | 435 kts | 237° |
| 2026-04-27 01:47 | 46.08269 | 5.41832 | 33154 ft | 435 kts | 238° |
| 2026-04-27 01:48 | 46.04824 | 5.34660 | 33154 ft | 435 kts | 238° |
| 2026-04-27 01:48 | 46.01369 | 5.27503 | 33149 ft | 436 kts | 238° |
| 2026-04-27 01:49 | 45.97904 | 5.20340 | 33146 ft | 436 kts | 238° |
| 2026-04-27 01:49 | 45.94444 | 5.13195 | 33145 ft | 436 kts | 238° |
| 2026-04-27 01:50 | 45.90972 | 5.06048 | 33146 ft | 436 kts | 237° |
| 2026-04-27 01:50 | 45.88082 | 5.00113 | 33143 ft | 436 kts | 238° |
| 2026-04-27 01:51 | 45.84600 | 4.92977 | 33145 ft | 436 kts | 237° |
| 2026-04-27 01:51 | 45.81113 | 4.85855 | 33147 ft | 436 kts | 237° |
| 2026-04-27 01:52 | 45.77620 | 4.78736 | 33148 ft | 436 kts | 237° |
| 2026-04-27 01:52 | 45.74203 | 4.71561 | 33147 ft | 434 kts | 244° |
| 2026-04-27 01:53 | 45.72263 | 4.63514 | 33150 ft | 426 kts | 264° |
| 2026-04-27 01:53 | 45.72414 | 4.55142 | 33164 ft | 420 kts | 284° |
| 2026-04-27 01:54 | 45.73741 | 4.47028 | 33167 ft | 419 kts | 285° |
| 2026-04-27 01:54 | 45.75048 | 4.38882 | 33169 ft | 419 kts | 285° |
| 2026-04-27 01:55 | 45.76349 | 4.30744 | 33170 ft | 419 kts | 285° |
| 2026-04-27 01:55 | 45.77649 | 4.22603 | 33172 ft | 419 kts | 284° |
| 2026-04-27 01:56 | 45.79593 | 4.10413 | 33173 ft | 418 kts | 284° |
| 2026-04-27 01:56 | 45.80884 | 4.02286 | 33172 ft | 418 kts | 284° |
| 2026-04-27 01:57 | 45.82164 | 3.94163 | 33177 ft | 418 kts | 284° |
| 2026-04-27 01:57 | 45.83437 | 3.86038 | 33181 ft | 417 kts | 284° |
| 2026-04-27 01:58 | 45.84707 | 3.77913 | 33178 ft | 417 kts | 284° |
| 2026-04-27 01:58 | 45.85962 | 3.69806 | 33179 ft | 417 kts | 284° |
| 2026-04-27 01:59 | 45.87209 | 3.61679 | 33177 ft | 416 kts | 283° |
| 2026-04-27 01:59 | 45.88140 | 3.53495 | 33180 ft | 418 kts | 272° |
| 2026-04-27 02:00 | 45.88030 | 3.45148 | 33181 ft | 418 kts | 270° |
| 2026-04-27 02:00 | 45.87892 | 3.36811 | 33181 ft | 418 kts | 270° |
| 2026-04-27 02:01 | 45.87747 | 3.28471 | 33180 ft | 418 kts | 270° |
| 2026-04-27 02:01 | 45.87604 | 3.20120 | 33179 ft | 418 kts | 270° |
| 2026-04-27 02:02 | 45.87455 | 3.11784 | 33181 ft | 418 kts | 270° |
| 2026-04-27 02:02 | 45.87291 | 3.03433 | 33197 ft | 425 kts | 270° |
| 2026-04-27 02:03 | 45.87121 | 2.94848 | 33188 ft | 440 kts | 269° |
| 2026-04-27 02:03 | 45.86938 | 2.85930 | 33181 ft | 449 kts | 269° |
| 2026-04-27 02:04 | 45.86739 | 2.76901 | 33196 ft | 454 kts | 269° |
| 2026-04-27 02:04 | 45.86539 | 2.67819 | 33202 ft | 456 kts | 269° |
| 2026-04-27 02:05 | 45.86329 | 2.58747 | 33196 ft | 455 kts | 269° |
| 2026-04-27 02:05 | 45.86111 | 2.49659 | 33194 ft | 456 kts | 269° |
| 2026-04-27 02:06 | 45.85886 | 2.40567 | 33200 ft | 456 kts | 269° |
| 2026-04-27 02:06 | 45.85652 | 2.31476 | 33191 ft | 456 kts | 269° |
| 2026-04-27 02:07 | 45.85412 | 2.22366 | 33201 ft | 456 kts | 269° |
| 2026-04-27 02:07 | 45.85169 | 2.13285 | 33200 ft | 456 kts | 269° |
| 2026-04-27 02:08 | 45.84919 | 2.04197 | 33199 ft | 456 kts | 268° |
| 2026-04-27 02:08 | 45.84661 | 1.95105 | 33197 ft | 455 kts | 268° |
| 2026-04-27 02:09 | 45.84392 | 1.86033 | 33194 ft | 455 kts | 268° |
| 2026-04-27 02:09 | 45.84119 | 1.76986 | 33193 ft | 455 kts | 268° |
| 2026-04-27 02:10 | 45.83840 | 1.67915 | 33192 ft | 455 kts | 268° |
| 2026-04-27 02:10 | 45.83554 | 1.58856 | 33178 ft | 455 kts | 268° |
| 2026-04-27 02:11 | 45.83259 | 1.49778 | 33173 ft | 455 kts | 268° |
| 2026-04-27 02:11 | 45.82956 | 1.40725 | 33162 ft | 455 kts | 267° |
| 2026-04-27 02:12 | 45.82640 | 1.31598 | 33174 ft | 455 kts | 267° |
| 2026-04-27 02:12 | 45.82326 | 1.22678 | 33163 ft | 430 kts | 267° |
| 2026-04-27 02:13 | 45.82024 | 1.14289 | 32875 ft | 417 kts | 267° |
| 2026-04-27 02:13 | 45.81871 | 1.10158 | 32628 ft | 416 kts | 266° |
| 2026-04-27 02:13 | 45.81477 | 1.06047 | 32368 ft | 416 kts | 257° |
| 2026-04-27 02:14 | 45.80633 | 1.02089 | 32106 ft | 417 kts | 249° |
| 2026-04-27 02:14 | 45.79357 | 0.98354 | 31854 ft | 419 kts | 240° |
| 2026-04-27 02:14 | 45.77709 | 0.94913 | 31601 ft | 420 kts | 235° |
| 2026-04-27 02:14 | 45.75985 | 0.91535 | 31348 ft | 419 kts | 235° |
| 2026-04-27 02:15 | 45.74246 | 0.88120 | 31098 ft | 418 kts | 235° |
| 2026-04-27 02:15 | 45.72557 | 0.84799 | 30854 ft | 416 kts | 235° |
| 2026-04-27 02:15 | 45.70833 | 0.81414 | 30607 ft | 415 kts | 235° |
| 2026-04-27 02:15 | 45.69135 | 0.78083 | 30260 ft | 412 kts | 235° |
| 2026-04-27 02:16 | 45.67452 | 0.74794 | 29609 ft | 408 kts | 235° |
| 2026-04-27 02:16 | 45.65782 | 0.71537 | 29036 ft | 404 kts | 234° |
| 2026-04-27 02:16 | 45.64136 | 0.68327 | 28465 ft | 399 kts | 234° |
| 2026-04-27 02:16 | 45.62498 | 0.65135 | 27906 ft | 395 kts | 234° |
| 2026-04-27 02:17 | 45.60881 | 0.61982 | 27352 ft | 392 kts | 234° |
| 2026-04-27 02:17 | 45.59274 | 0.58852 | 26816 ft | 389 kts | 234° |
| 2026-04-27 02:17 | 45.57677 | 0.55749 | 26286 ft | 386 kts | 234° |
| 2026-04-27 02:17 | 45.56092 | 0.52674 | 25774 ft | 383 kts | 234° |
| 2026-04-27 02:18 | 45.54525 | 0.49631 | 25267 ft | 380 kts | 234° |
| 2026-04-27 02:18 | 45.52962 | 0.46598 | 24776 ft | 378 kts | 234° |
| 2026-04-27 02:18 | 45.51407 | 0.43589 | 24290 ft | 375 kts | 233° |
| 2026-04-27 02:18 | 45.49862 | 0.40604 | 23814 ft | 373 kts | 233° |
| 2026-04-27 02:19 | 45.48322 | 0.37635 | 23280 ft | 370 kts | 233° |
| 2026-04-27 02:19 | 45.46797 | 0.34695 | 22808 ft | 366 kts | 233° |
| 2026-04-27 02:19 | 45.45269 | 0.31755 | 22342 ft | 363 kts | 233° |
| 2026-04-27 02:19 | 45.43776 | 0.28889 | 21869 ft | 360 kts | 233° |
| 2026-04-27 02:20 | 45.42287 | 0.26039 | 21393 ft | 357 kts | 233° |
| 2026-04-27 02:20 | 45.40815 | 0.23220 | 20931 ft | 355 kts | 233° |
| 2026-04-27 02:20 | 45.39347 | 0.20410 | 20444 ft | 353 kts | 233° |
| 2026-04-27 02:20 | 45.37881 | 0.17605 | 19959 ft | 352 kts | 233° |
| 2026-04-27 02:21 | 45.36423 | 0.14815 | 19479 ft | 351 kts | 233° |
| 2026-04-27 02:21 | 45.35436 | 0.12926 | 19143 ft | 351 kts | 233° |
| 2026-04-27 02:21 | 45.33506 | 0.09192 | 18322 ft | 357 kts | 234° |
| 2026-04-27 02:21 | 45.32042 | 0.06320 | 17667 ft | 359 kts | 234° |
| 2026-04-27 02:22 | 45.31055 | 0.04381 | 17254 ft | 359 kts | 234° |
| 2026-04-27 02:22 | 45.29584 | 0.01496 | 16638 ft | 361 kts | 234° |
| 2026-04-27 02:22 | 45.28106 | -0.01385 | 16023 ft | 362 kts | 234° |
| 2026-04-27 02:22 | 45.26618 | -0.04277 | 15403 ft | 363 kts | 234° |
| 2026-04-27 02:23 | 45.25124 | -0.07175 | 14829 ft | 363 kts | 234° |
| 2026-04-27 02:23 | 45.23645 | -0.10039 | 14276 ft | 362 kts | 234° |
| 2026-04-27 02:23 | 45.22160 | -0.12909 | 13820 ft | 357 kts | 234° |
| 2026-04-27 02:23 | 45.20703 | -0.15723 | 13182 ft | 350 kts | 234° |
| 2026-04-27 02:24 | 45.19274 | -0.18487 | 12302 ft | 343 kts | 234° |
| 2026-04-27 02:24 | 45.17854 | -0.21236 | 11549 ft | 346 kts | 234° |
| 2026-04-27 02:24 | 45.16350 | -0.23893 | 11013 ft | 344 kts | 225° |
| 2026-04-27 02:24 | 45.14701 | -0.26239 | 10880 ft | 329 kts | 225° |
| 2026-04-27 02:25 | 45.13133 | -0.28497 | 10751 ft | 311 kts | 226° |
| 2026-04-27 02:25 | 45.11674 | -0.30610 | 10643 ft | 289 kts | 226° |
| 2026-04-27 02:25 | 45.10243 | -0.32503 | 10568 ft | 277 kts | 215° |
| 2026-04-27 02:25 | 45.08563 | -0.33704 | 10386 ft | 270 kts | 197° |
| 2026-04-27 02:26 | 45.06691 | -0.34157 | 9899 ft | 275 kts | 185° |
| 2026-04-27 02:26 | 45.04783 | -0.34421 | 9464 ft | 276 kts | 186° |
| 2026-04-27 02:26 | 45.02871 | -0.34688 | 9039 ft | 277 kts | 186° |
| 2026-04-27 02:26 | 45.00958 | -0.34957 | 8621 ft | 277 kts | 186° |
| 2026-04-27 02:27 | 44.99047 | -0.35225 | 8189 ft | 276 kts | 186° |
| 2026-04-27 02:27 | 44.97128 | -0.35496 | 7775 ft | 276 kts | 186° |
| 2026-04-27 02:27 | 44.95223 | -0.35764 | 7361 ft | 275 kts | 186° |
| 2026-04-27 02:27 | 44.93307 | -0.36033 | 6941 ft | 274 kts | 186° |
| 2026-04-27 02:28 | 44.92046 | -0.36211 | 6660 ft | 274 kts | 186° |
| 2026-04-27 02:28 | 44.90262 | -0.36468 | 6259 ft | 273 kts | 186° |
| 2026-04-27 02:28 | 44.88319 | -0.36742 | 5823 ft | 271 kts | 186° |
| 2026-04-27 02:28 | 44.86447 | -0.37005 | 5408 ft | 269 kts | 186° |
| 2026-04-27 02:29 | 44.84606 | -0.37434 | 4998 ft | 267 kts | 197° |
| 2026-04-27 02:29 | 44.82834 | -0.38189 | 4695 ft | 261 kts | 197° |
| 2026-04-27 02:29 | 44.81115 | -0.38915 | 4244 ft | 261 kts | 196° |
| 2026-04-27 02:29 | 44.79369 | -0.39651 | 3855 ft | 258 kts | 196° |
| 2026-04-27 02:30 | 44.77816 | -0.40698 | 3782 ft | 243 kts | 224° |
| 2026-04-27 02:30 | 44.77028 | -0.42678 | 3622 ft | 231 kts | 262° |
| 2026-04-27 02:30 | 44.77208 | -0.44912 | 3200 ft | 233 kts | 288° |
| 2026-04-27 02:30 | 44.77684 | -0.47072 | 2994 ft | 226 kts | 289° |
| 2026-04-27 02:31 | 44.78128 | -0.49115 | 2997 ft | 211 kts | 288° |
| 2026-04-27 02:31 | 44.78535 | -0.51021 | 2907 ft | 198 kts | 288° |
| 2026-04-27 02:31 | 44.78921 | -0.52844 | 2661 ft | 192 kts | 288° |
| 2026-04-27 02:31 | 44.79299 | -0.54623 | 2419 ft | 186 kts | 288° |
| 2026-04-27 02:32 | 44.79657 | -0.56317 | 2181 ft | 175 kts | 288° |
| 2026-04-27 02:32 | 44.79989 | -0.57887 | 1979 ft | 158 kts | 288° |
| 2026-04-27 02:32 | 44.80289 | -0.59311 | 1759 ft | 147 kts | 289° |
| 2026-04-27 02:32 | 44.80575 | -0.60664 | 1564 ft | 141 kts | 289° |
| 2026-04-27 02:33 | 44.80853 | -0.61976 | 1385 ft | 139 kts | 288° |
| 2026-04-27 02:33 | 44.81125 | -0.63266 | 1199 ft | 137 kts | 289° |
| 2026-04-27 02:33 | 44.81399 | -0.64550 | 968 ft | 135 kts | 288° |
| 2026-04-27 02:33 | 44.81679 | -0.65792 | 787 ft | 132 kts | 287° |
| 2026-04-27 02:34 | 44.81946 | -0.67020 | 645 ft | 131 kts | 282° |
| 2026-04-27 02:34 | 44.82201 | -0.68247 | 486 ft | 130 kts | 284° |
| 2026-04-27 02:34 | 44.82436 | -0.69473 | 338 ft | 130 kts | 285° |
| 2026-04-27 02:34 | 44.82685 | -0.70686 | 213 ft | 128 kts | 287° |
| 2026-04-27 02:35 | 44.82918 | -0.71792 | 173 ft | 98 kts | 288° |
| 2026-04-27 02:35 | 44.83062 | -0.72481 | 167 ft | 48 kts | 286° |
| 2026-04-27 02:35 | 44.83118 | -0.72707 | 165 ft | 10 kts | 207° |
| 2026-04-27 02:35 | 44.83100 | -0.72676 | 165 ft | 3 kts | 106° |
| 2026-04-27 02:36 | 44.83089 | -0.72595 | 165 ft | 17 kts | 100° |
| 2026-04-27 02:36 | 44.83048 | -0.72412 | 169 ft | 23 kts | 108° |
| 2026-04-27 02:36 | 44.83008 | -0.72205 | 170 ft | 20 kts | 97° |
| 2026-04-27 02:36 | 44.83069 | -0.72124 | 168 ft | 11 kts | 12° |
| 2026-04-27 02:37 | 44.83128 | -0.72096 | 168 ft | 7 kts | 26° |
| 2026-04-27 02:37 | 44.83166 | -0.72049 | 168 ft | 7 kts | 61° |
| 2026-04-27 02:37 | 44.83155 | -0.71998 | 168 ft | 5 kts | 110° |
| 2026-04-27 02:37 | 44.83143 | -0.71951 | 168 ft | 5 kts | 106° |
| 2026-04-27 02:38 | 44.83135 | -0.71903 | 168 ft | 5 kts | 101° |
| 2026-04-27 02:38 | 44.83126 | -0.71836 | 168 ft | 11 kts | 101° |
| 2026-04-27 02:38 | 44.83097 | -0.71689 | 168 ft | 19 kts | 107° |
| 2026-04-27 02:38 | 44.83058 | -0.71499 | 168 ft | 21 kts | 107° |
| 2026-04-27 02:39 | 44.83014 | -0.71291 | 168 ft | 23 kts | 107° |
| 2026-04-27 02:39 | 44.82968 | -0.71069 | 169 ft | 24 kts | 107° |
| 2026-04-27 02:39 | 44.82977 | -0.70923 | 169 ft | 14 kts | 46° |
| 2026-04-27 02:39 | 44.83044 | -0.70830 | 169 ft | 13 kts | 45° |
| 2026-04-27 02:40 | 44.83110 | -0.70736 | 168 ft | 14 kts | 45° |
| 2026-04-27 02:40 | 44.83177 | -0.70641 | 167 ft | 14 kts | 45° |
| 2026-04-27 02:40 | 44.83206 | -0.70524 | 167 ft | 13 kts | 74° |
| 2026-04-27 02:40 | 44.83209 | -0.70447 | 167 ft | 5 kts | 132° |
| 2026-04-27 02:41 | 44.83188 | -0.70430 | 167 ft | 3 kts | 158° |
| 2026-04-27 02:41 | 44.83170 | -0.70421 | 167 ft | 3 kts | 161° |
| 2026-04-27 02:41 | 44.83165 | -0.70419 | 167 ft | 0 kts | 161° |